createdAt,value
2022-12-24T00:04:19.985Z,80.70
2022-12-24T00:09:23.399Z,80.70
2022-12-24T00:14:27.040Z,80.70
2022-12-24T00:19:32.631Z,80.80
2022-12-24T00:24:36.037Z,80.80
2022-12-24T00:29:39.689Z,80.90
2022-12-24T00:34:44.505Z,80.90
2022-12-24T00:39:47.916Z,80.90
2022-12-24T00:44:51.321Z,80.80
2022-12-24T00:49:56.041Z,80.90
2022-12-24T00:54:59.405Z,80.90
2022-12-24T01:00:02.973Z,81.00
2022-12-24T01:05:11.370Z,81.00
2022-12-24T01:10:16.780Z,81.00
2022-12-24T01:15:20.382Z,81.00
2022-12-24T01:20:27.382Z,81.10
2022-12-24T01:25:31.040Z,81.10
2022-12-24T01:30:34.463Z,81.10
2022-12-24T01:35:42.338Z,81.10
2022-12-24T01:41:03.267Z,81.20
2022-12-24T01:46:10.642Z,81.10
2022-12-24T01:51:21.080Z,81.20
2022-12-24T01:56:25.897Z,81.20
2022-12-24T02:01:29.502Z,81.30
2022-12-24T02:06:34.317Z,81.30
2022-12-24T02:11:39.843Z,81.20
2022-12-24T02:16:53.209Z,81.20
2022-12-24T02:22:04.032Z,81.30
2022-12-24T02:27:21.024Z,81.40
2022-12-24T02:32:31.580Z,81.40
2022-12-24T02:37:40.331Z,82.20
2022-12-24T02:42:47.886Z,81.20
2022-12-24T02:47:54.061Z,81.20
2022-12-24T02:52:57.653Z,81.20
2022-12-24T02:58:20.769Z,81.20
2022-12-24T03:03:38.132Z,81.20
2022-12-24T03:08:50.155Z,81.20
2022-12-24T03:13:56.225Z,81.20
2022-12-24T03:19:01.964Z,81.10
2022-12-24T03:24:05.542Z,81.10
2022-12-24T03:29:09.705Z,81.10
2022-12-24T03:34:15.995Z,81.00
2022-12-24T03:39:19.572Z,81.00
2022-12-24T03:44:22.972Z,81.00
2022-12-24T03:49:27.733Z,81.10
2022-12-24T03:54:31.367Z,81.20
2022-12-24T03:59:34.759Z,81.40
2022-12-24T04:04:39.558Z,81.50
2022-12-24T04:09:43.173Z,81.60
2022-12-24T04:14:46.592Z,82.60
2022-12-24T04:19:51.358Z,84.50
2022-12-24T04:24:55.019Z,85.30
2022-12-24T04:29:59.860Z,86.00
2022-12-24T04:35:04.796Z,87.00
2022-12-24T04:40:09.496Z,86.60
2022-12-24T04:45:12.978Z,86.40
2022-12-24T04:50:17.798Z,86.70
2022-12-24T04:55:21.422Z,86.40
2022-12-24T05:00:25.098Z,85.80
2022-12-24T05:05:30.537Z,85.30
2022-12-24T05:10:34.294Z,85.00
2022-12-24T05:15:37.676Z,84.80
2022-12-24T05:20:44.065Z,85.30
2022-12-24T05:26:06.122Z,86.30
2022-12-24T05:31:09.610Z,86.70
2022-12-24T05:36:14.950Z,86.50
2022-12-24T05:41:18.985Z,86.40
2022-12-24T05:46:23.999Z,86.40
2022-12-24T05:51:28.861Z,86.10
2022-12-24T05:56:32.284Z,85.70
2022-12-24T06:01:35.834Z,85.40
2022-12-24T06:06:40.637Z,85.10
2022-12-24T06:11:44.466Z,84.90
2022-12-24T06:16:48.024Z,84.90
2022-12-24T06:21:52.787Z,84.60
2022-12-24T06:26:56.525Z,84.80
2022-12-24T06:32:00.073Z,84.90
2022-12-24T06:37:04.915Z,84.90
2022-12-24T06:42:08.450Z,84.70
2022-12-24T06:47:11.842Z,84.70
2022-12-24T06:52:17.184Z,84.50
2022-12-24T06:57:20.579Z,84.10
2022-12-24T07:02:24.314Z,84.20
2022-12-24T07:07:29.320Z,85.20
2022-12-24T07:12:32.891Z,84.10
2022-12-24T07:17:36.681Z,84.20
2022-12-24T07:22:41.552Z,84.20
2022-12-24T07:27:45.295Z,84.00
2022-12-24T07:32:48.996Z,84.70
2022-12-24T07:37:53.850Z,85.40
2022-12-24T07:42:57.279Z,86.10
2022-12-24T07:48:00.713Z,86.40
2022-12-24T07:53:05.567Z,86.90
2022-12-24T07:58:08.987Z,87.40
2022-12-24T08:03:18.307Z,87.30
2022-12-24T08:08:23.206Z,87.50
2022-12-24T08:13:26.632Z,87.40
2022-12-24T08:18:30.067Z,87.40
2022-12-24T08:23:34.942Z,87.40
2022-12-24T08:28:38.844Z,88.10
2022-12-24T08:33:42.336Z,88.50
2022-12-24T08:38:47.127Z,88.60
2022-12-24T08:43:50.560Z,88.90
2022-12-24T08:48:54.053Z,88.80
2022-12-24T08:53:58.809Z,88.70
2022-12-24T08:59:02.444Z,88.90
2022-12-24T09:04:06.102Z,89.70
2022-12-24T09:09:10.867Z,89.40
2022-12-24T09:14:14.545Z,89.30
2022-12-24T09:19:18.025Z,89.30
2022-12-24T09:24:23.105Z,89.60
2022-12-24T09:29:27.614Z,89.60
2022-12-24T09:34:31.021Z,89.90
2022-12-24T09:39:35.894Z,89.60
2022-12-24T09:44:45.395Z,89.70
2022-12-24T09:49:53.096Z,89.60
2022-12-24T09:55:03.622Z,90.00
2022-12-24T10:00:17.501Z,89.90
2022-12-24T10:05:29.724Z,89.90
2022-12-24T10:10:39.872Z,89.70
2022-12-24T10:15:53.435Z,89.70
2022-12-24T10:21:06.955Z,89.70
2022-12-24T10:26:16.484Z,89.60
2022-12-24T10:31:24.761Z,89.60
2022-12-24T10:36:30.544Z,89.20
2022-12-24T10:41:37.245Z,89.20
2022-12-24T10:46:41.522Z,88.90
2022-12-24T10:51:49.016Z,89.40
2022-12-24T10:56:58.018Z,88.70
2022-12-24T11:02:02.971Z,88.90
2022-12-24T11:07:18.565Z,88.70
2022-12-24T11:12:30.811Z,89.70
2022-12-24T11:17:35.012Z,88.80
2022-12-24T11:22:38.464Z,88.90
2022-12-24T11:27:47.332Z,88.90
2022-12-24T11:32:52.412Z,88.80
2022-12-24T11:38:11.884Z,88.60
2022-12-24T11:43:18.946Z,89.70
2022-12-24T11:48:28.772Z,88.60
2022-12-24T11:53:37.271Z,88.70
2022-12-24T11:58:47.305Z,88.60
2022-12-24T12:03:54.437Z,89.80
2022-12-24T12:09:02.395Z,88.70
2022-12-24T12:14:12.112Z,88.90
2022-12-24T12:19:15.690Z,89.00
2022-12-24T12:24:31.577Z,89.20
2022-12-24T12:29:43.729Z,89.00
2022-12-24T12:34:57.457Z,88.60
2022-12-24T12:40:01.761Z,88.10
2022-12-24T12:45:26.900Z,87.10
2022-12-24T12:50:35.733Z,87.00
2022-12-24T12:55:47.636Z,86.20
2022-12-24T13:00:57.655Z,86.00
2022-12-24T13:06:27.442Z,85.50
2022-12-24T13:11:46.007Z,84.90
2022-12-24T13:17:15.775Z,84.70
2022-12-24T13:22:22.378Z,84.50
2022-12-24T13:27:28.157Z,84.50
2022-12-24T13:33:00.119Z,84.10
2022-12-24T13:38:43.604Z,84.10
2022-12-24T13:44:03.871Z,83.60
2022-12-24T13:49:19.112Z,83.40
2022-12-24T13:54:28.535Z,82.50
2022-12-24T13:59:39.011Z,82.50
2022-12-24T14:04:44.172Z,82.30
2022-12-24T14:09:52.567Z,81.70
2022-12-24T14:14:55.991Z,81.00
2022-12-24T14:20:03.001Z,81.40
2022-12-24T14:25:16.721Z,81.00
2022-12-24T14:30:22.596Z,80.60
2022-12-24T14:35:31.022Z,80.20
2022-12-24T14:40:38.968Z,79.60
2022-12-24T14:45:47.833Z,79.40
2022-12-24T14:51:08.083Z,79.30
2022-12-24T14:56:15.964Z,79.20
2022-12-24T15:01:25.035Z,79.00
2022-12-24T15:06:32.643Z,79.40
2022-12-24T15:11:36.913Z,79.00
2022-12-24T15:16:41.019Z,78.60
2022-12-24T15:21:45.938Z,78.50
2022-12-24T15:26:49.655Z,78.90
2022-12-24T15:31:57.866Z,78.90
2022-12-24T15:37:12.841Z,78.80
2022-12-24T15:42:22.965Z,78.90
2022-12-24T15:47:30.697Z,78.30
2022-12-24T15:52:41.759Z,78.20
2022-12-24T15:57:45.185Z,78.60
2022-12-24T16:02:48.883Z,78.40
2022-12-24T16:08:10.199Z,78.00
2022-12-24T16:13:17.225Z,79.30
2022-12-24T16:18:25.005Z,77.90
2022-12-24T16:23:35.943Z,77.70
2022-12-24T16:28:39.580Z,78.10
2022-12-24T16:33:44.432Z,78.20
2022-12-24T16:39:06.596Z,78.50
2022-12-24T16:44:10.316Z,78.70
2022-12-24T16:49:18.333Z,78.50
2022-12-24T16:54:23.111Z,78.40
2022-12-24T16:59:26.560Z,78.30
2022-12-24T17:04:32.668Z,77.90
2022-12-24T17:09:37.517Z,78.90
2022-12-24T17:14:42.324Z,78.00
2022-12-24T17:19:45.959Z,77.90
2022-12-24T17:24:50.920Z,77.90
2022-12-24T17:29:54.380Z,78.10
2022-12-24T17:34:59.988Z,77.90
2022-12-24T17:40:05.650Z,77.50
2022-12-24T17:45:10.303Z,77.50
2022-12-24T17:50:13.752Z,77.90
2022-12-24T17:55:18.731Z,77.80
2022-12-24T18:00:23.371Z,77.70
2022-12-24T18:05:29.077Z,77.50
2022-12-24T18:10:33.857Z,77.50
2022-12-24T18:15:38.825Z,77.30
2022-12-24T18:20:46.647Z,77.00
2022-12-24T18:25:51.929Z,76.80
2022-12-24T18:30:59.127Z,76.70
2022-12-24T18:36:03.235Z,76.60
2022-12-24T18:41:09.692Z,76.10
2022-12-24T18:46:15.580Z,76.10
2022-12-24T18:51:22.094Z,77.50
2022-12-24T18:56:27.415Z,76.10
2022-12-24T19:01:32.663Z,76.40
2022-12-24T19:06:36.319Z,76.20
2022-12-24T19:11:41.760Z,76.50
2022-12-24T19:16:45.444Z,76.50
2022-12-24T19:21:48.890Z,76.50
2022-12-24T19:26:53.727Z,76.60
2022-12-24T19:31:57.197Z,76.50
2022-12-24T19:37:00.700Z,76.50
2022-12-24T19:42:05.717Z,76.50
2022-12-24T19:47:09.344Z,76.60
2022-12-24T19:52:12.786Z,76.70
2022-12-24T19:57:17.634Z,76.70
2022-12-24T20:02:21.179Z,76.60
2022-12-24T20:07:24.755Z,76.60
2022-12-24T20:12:29.581Z,76.50
2022-12-24T20:17:33.059Z,76.30
2022-12-24T20:22:36.720Z,76.30
2022-12-24T20:27:41.535Z,76.50
2022-12-24T20:32:44.967Z,76.40
2022-12-24T20:37:48.429Z,76.50
2022-12-24T20:42:54.434Z,76.50
2022-12-24T20:47:58.956Z,76.40
2022-12-24T20:53:02.558Z,76.60
2022-12-24T20:58:07.362Z,76.70
2022-12-24T21:03:11.179Z,76.90
2022-12-24T21:08:15.628Z,77.00
2022-12-24T21:13:20.527Z,77.00
2022-12-24T21:18:24.202Z,77.00
2022-12-24T21:23:27.669Z,76.80
2022-12-24T21:28:33.258Z,77.00
2022-12-24T21:33:38.426Z,77.00
2022-12-24T21:38:42.626Z,77.20
2022-12-24T21:43:47.811Z,77.40
2022-12-24T21:49:09.393Z,77.50
2022-12-24T21:54:27.235Z,77.40
2022-12-24T21:59:32.496Z,77.50
2022-12-24T22:04:36.312Z,77.50
2022-12-24T22:09:57.757Z,77.50
2022-12-24T22:15:02.671Z,77.40
2022-12-24T22:20:07.404Z,77.30
2022-12-24T22:25:10.899Z,77.40
2022-12-24T22:30:15.721Z,77.40
2022-12-24T22:35:19.584Z,77.30
2022-12-24T22:40:23.022Z,77.40
2022-12-24T22:45:27.748Z,77.30
2022-12-24T22:50:31.650Z,77.30
2022-12-24T22:55:35.303Z,78.20
2022-12-24T23:00:43.145Z,77.60
2022-12-24T23:05:46.998Z,77.80
2022-12-24T23:10:50.673Z,77.80
2022-12-24T23:15:55.464Z,77.80
2022-12-24T23:20:59.192Z,77.80
2022-12-24T23:26:06.713Z,77.60
2022-12-24T23:31:11.817Z,77.80
2022-12-24T23:36:15.554Z,77.90
2022-12-24T23:41:19.680Z,77.80
2022-12-24T23:46:24.467Z,77.90
2022-12-24T23:51:29.163Z,77.90
2022-12-24T23:56:32.581Z,78.00
